Aérodrome :
LOGIN :

S'inscrire | Disclaimer

   EN    FR    IT 

 










Légende :    VFR   VFR Marginal   IFR   IFR Intensif   IFR Très Intensif
Visi : 
Plafond : 
>= 8 km
>= 3000ft
5 à 8 km
1000 à 3000 ft
1500m à 5 km
500 à 1000 ft
800 à 1500m
200 à 500 ft
< 800m
< 200 ft
Symboles :   Orages  Brouillard  Fortes neiges  Fortes précipitations  Vent > 20 kt
SIGMETs :   Divers  Orages  Givrage  Turbulence  Onde Orograph.  Cendres Volcan.







- Altitude de l'aérodrome : 28 ft
- Code IATA : SOZ
- Voir les cartes d'approche


LFKS - Solenzara

DERNIER METAR :
  • 230130Z AUTO VRB02KT CAVOK 14/09 Q1018

METARs EXPIRÉS :
  • 230100Z AUTO 29003KT CAVOK 16/09 Q1018
  • 230030Z AUTO 29005KT CAVOK 15/09 Q1018
  • 230000Z AUTO 29005KT CAVOK 16/09 Q1018
  • 222330Z AUTO 29004KT CAVOK 16/09 Q1019
  • 222300Z AUTO 28004KT 250V320 CAVOK 16/09 Q1019

TAF TAF LFKS
Valide du 22 à 13h jusqu'au 23 à 09h UTC


221200Z 2213/2309 16006KT 9999 FEW060
Pas de NOTAMs connus pour ce terrain.



MET'MAP, la Météo Aéronautique d'un coup d'oeil ! - Copyright ORBIFLY Décembre 2007 - Disclaimer

ORBIFLY MET'MAP TEAM :

Programmation & Développement : Alexandra Zaïnal
Conception & Développement : Baudouin d'Aumeries
Co-Programmation & Développement : Marc-Olivier Méhu
Soutien technique & logistique : Manuel Goepfert

Contact : metmap@orbifly.com




SOURCES & CREDITS :

   NOAA